sensor_id;sensor_type;location;lat;lon;timestamp;P1;durP1;ratioP1;P2;durP2;ratioP2
74541;SDS011;63015;45.378;20.360;2023-02-28T00:00:35;17.05;;;8.20;;
74541;SDS011;63015;45.378;20.360;2023-02-28T00:02:40;16.35;;;8.13;;
74541;SDS011;63015;45.378;20.360;2023-02-28T00:04:42;15.48;;;6.35;;
74541;SDS011;63015;45.378;20.360;2023-02-28T00:06:42;15.52;;;8.13;;
74541;SDS011;63015;45.378;20.360;2023-02-28T00:08:43;10.48;;;5.65;;
74541;SDS011;63015;45.378;20.360;2023-02-28T00:10:44;15.52;;;7.18;;
74541;SDS011;63015;45.378;20.360;2023-02-28T00:12:44;9.65;;;4.50;;
74541;SDS011;63015;45.378;20.360;2023-02-28T00:14:45;14.25;;;6.93;;
74541;SDS011;63015;45.378;20.360;2023-02-28T00:16:45;8.05;;;3.30;;
74541;SDS011;63015;45.378;20.360;2023-02-28T00:18:46;18.45;;;7.95;;
74541;SDS011;63015;45.378;20.360;2023-02-28T00:20:50;16.75;;;8.50;;
74541;SDS011;63015;45.378;20.360;2023-02-28T00:22:51;7.47;;;4.45;;
74541;SDS011;63015;45.378;20.360;2023-02-28T00:24:52;14.30;;;7.50;;
74541;SDS011;63015;45.378;20.360;2023-02-28T00:26:53;8.38;;;3.60;;
74541;SDS011;63015;45.378;20.360;2023-02-28T00:28:53;12.23;;;6.30;;
74541;SDS011;63015;45.378;20.360;2023-02-28T00:30:54;10.60;;;4.47;;
74541;SDS011;63015;45.378;20.360;2023-02-28T00:32:54;12.45;;;5.35;;
74541;SDS011;63015;45.378;20.360;2023-02-28T00:34:55;14.10;;;7.10;;
74541;SDS011;63015;45.378;20.360;2023-02-28T00:36:56;11.48;;;4.47;;
74541;SDS011;63015;45.378;20.360;2023-02-28T00:38:56;14.70;;;7.53;;
74541;SDS011;63015;45.378;20.360;2023-02-28T00:40:57;13.05;;;6.63;;
74541;SDS011;63015;45.378;20.360;2023-02-28T00:42:59;10.57;;;5.32;;
74541;SDS011;63015;45.378;20.360;2023-02-28T00:44:59;12.30;;;5.82;;
74541;SDS011;63015;45.378;20.360;2023-02-28T00:47:00;7.80;;;3.50;;
74541;SDS011;63015;45.378;20.360;2023-02-28T00:49:00;15.43;;;7.43;;
74541;SDS011;63015;45.378;20.360;2023-02-28T00:51:01;18.10;;;9.35;;
74541;SDS011;63015;45.378;20.360;2023-02-28T00:53:02;11.75;;;4.78;;
74541;SDS011;63015;45.378;20.360;2023-02-28T00:55:02;16.10;;;7.95;;
74541;SDS011;63015;45.378;20.360;2023-02-28T00:57:03;17.38;;;8.80;;
74541;SDS011;63015;45.378;20.360;2023-02-28T00:59:05;8.35;;;4.20;;
74541;SDS011;63015;45.378;20.360;2023-02-28T01:01:06;11.05;;;5.40;;
74541;SDS011;63015;45.378;20.360;2023-02-28T01:03:07;20.40;;;9.68;;
74541;SDS011;63015;45.378;20.360;2023-02-28T01:05:07;10.10;;;4.95;;
74541;SDS011;63015;45.378;20.360;2023-02-28T01:07:08;13.95;;;7.22;;
74541;SDS011;63015;45.378;20.360;2023-02-28T01:09:09;17.80;;;8.52;;
74541;SDS011;63015;45.378;20.360;2023-02-28T01:11:10;12.55;;;6.50;;
74541;SDS011;63015;45.378;20.360;2023-02-28T01:13:14;14.80;;;6.85;;
74541;SDS011;63015;45.378;20.360;2023-02-28T01:15:15;22.48;;;10.63;;
74541;SDS011;63015;45.378;20.360;2023-02-28T01:17:16;20.50;;;10.13;;
74541;SDS011;63015;45.378;20.360;2023-02-28T01:19:16;12.75;;;6.60;;
74541;SDS011;63015;45.378;20.360;2023-02-28T01:21:18;17.20;;;7.45;;
74541;SDS011;63015;45.378;20.360;2023-02-28T01:23:20;20.42;;;10.45;;
74541;SDS011;63015;45.378;20.360;2023-02-28T01:25:23;23.73;;;11.18;;
74541;SDS011;63015;45.378;20.360;2023-02-28T01:27:23;22.52;;;10.40;;
74541;SDS011;63015;45.378;20.360;2023-02-28T01:29:26;18.48;;;9.10;;
74541;SDS011;63015;45.378;20.360;2023-02-28T01:31:27;11.13;;;5.90;;
74541;SDS011;63015;45.378;20.360;2023-02-28T01:33:27;25.10;;;11.65;;
74541;SDS011;63015;45.378;20.360;2023-02-28T01:35:28;18.20;;;8.65;;
74541;SDS011;63015;45.378;20.360;2023-02-28T01:37:32;20.73;;;9.65;;
74541;SDS011;63015;45.378;20.360;2023-02-28T01:39:32;12.82;;;6.68;;
74541;SDS011;63015;45.378;20.360;2023-02-28T01:41:33;23.27;;;10.80;;
74541;SDS011;63015;45.378;20.360;2023-02-28T01:45:46;19.38;;;9.07;;
74541;SDS011;63015;45.378;20.360;2023-02-28T01:47:46;14.57;;;7.80;;
74541;SDS011;63015;45.378;20.360;2023-02-28T01:49:50;20.75;;;9.60;;
74541;SDS011;63015;45.378;20.360;2023-02-28T01:51:52;21.25;;;9.75;;
74541;SDS011;63015;45.378;20.360;2023-02-28T01:53:58;12.27;;;6.63;;
74541;SDS011;63015;45.378;20.360;2023-02-28T01:56:01;10.38;;;5.72;;
74541;SDS011;63015;45.378;20.360;2023-02-28T01:58:06;15.25;;;7.07;;
74541;SDS011;63015;45.378;20.360;2023-02-28T02:00:10;21.27;;;8.85;;
74541;SDS011;63015;45.378;20.360;2023-02-28T02:02:15;20.13;;;9.20;;
74541;SDS011;63015;45.378;20.360;2023-02-28T02:04:17;8.25;;;3.90;;
74541;SDS011;63015;45.378;20.360;2023-02-28T02:06:24;18.45;;;9.52;;
74541;SDS011;63015;45.378;20.360;2023-02-28T02:08:28;17.02;;;8.07;;
74541;SDS011;63015;45.378;20.360;2023-02-28T02:10:34;18.73;;;8.80;;
74541;SDS011;63015;45.378;20.360;2023-02-28T02:17:07;17.85;;;8.82;;
74541;SDS011;63015;45.378;20.360;2023-02-28T02:26:47;14.95;;;6.70;;
74541;SDS011;63015;45.378;20.360;2023-02-28T02:35:43;21.35;;;9.65;;
74541;SDS011;63015;45.378;20.360;2023-02-28T02:38:18;22.83;;;11.27;;
74541;SDS011;63015;45.378;20.360;2023-02-28T02:43:22;17.73;;;6.07;;
74541;SDS011;63015;45.378;20.360;2023-02-28T02:45:52;16.17;;;7.20;;
74541;SDS011;63015;45.378;20.360;2023-02-28T02:47:56;24.98;;;11.25;;
74541;SDS011;63015;45.378;20.360;2023-02-28T02:50:01;9.93;;;4.78;;
74541;SDS011;63015;45.378;20.360;2023-02-28T02:52:08;25.88;;;11.68;;
74541;SDS011;63015;45.378;20.360;2023-02-28T02:54:13;22.42;;;9.93;;
74541;SDS011;63015;45.378;20.360;2023-02-28T02:56:20;13.15;;;6.25;;
74541;SDS011;63015;45.378;20.360;2023-02-28T02:58:26;23.05;;;10.27;;
74541;SDS011;63015;45.378;20.360;2023-02-28T03:00:35;10.73;;;5.40;;
74541;SDS011;63015;45.378;20.360;2023-02-28T03:02:43;24.30;;;10.75;;
74541;SDS011;63015;45.378;20.360;2023-02-28T03:04:48;25.35;;;12.18;;
74541;SDS011;63015;45.378;20.360;2023-02-28T03:06:55;24.25;;;10.75;;
74541;SDS011;63015;45.378;20.360;2023-02-28T03:08:55;27.27;;;11.75;;
74541;SDS011;63015;45.378;20.360;2023-02-28T03:10:57;25.38;;;10.35;;
74541;SDS011;63015;45.378;20.360;2023-02-28T03:13:08;27.20;;;11.80;;
74541;SDS011;63015;45.378;20.360;2023-02-28T03:15:34;23.95;;;10.82;;
74541;SDS011;63015;45.378;20.360;2023-02-28T03:22:22;20.67;;;9.93;;
74541;SDS011;63015;45.378;20.360;2023-02-28T03:24:27;25.92;;;12.15;;
74541;SDS011;63015;45.378;20.360;2023-02-28T03:26:31;26.17;;;11.88;;
74541;SDS011;63015;45.378;20.360;2023-02-28T03:28:40;26.13;;;11.68;;
74541;SDS011;63015;45.378;20.360;2023-02-28T03:37:08;20.85;;;9.80;;
74541;SDS011;63015;45.378;20.360;2023-02-28T03:39:17;21.30;;;10.10;;
74541;SDS011;63015;45.378;20.360;2023-02-28T03:41:45;20.85;;;8.48;;
74541;SDS011;63015;45.378;20.360;2023-02-28T03:44:05;23.10;;;10.75;;
74541;SDS011;63015;45.378;20.360;2023-02-28T03:46:16;21.95;;;9.95;;
74541;SDS011;63015;45.378;20.360;2023-02-28T03:48:23;19.83;;;9.07;;
74541;SDS011;63015;45.378;20.360;2023-02-28T03:50:38;15.93;;;7.32;;
74541;SDS011;63015;45.378;20.360;2023-02-28T03:52:42;19.15;;;9.32;;
74541;SDS011;63015;45.378;20.360;2023-02-28T03:54:51;8.27;;;4.25;;
74541;SDS011;63015;45.378;20.360;2023-02-28T03:56:59;18.17;;;8.18;;
74541;SDS011;63015;45.378;20.360;2023-02-28T03:59:18;21.38;;;9.43;;
74541;SDS011;63015;45.378;20.360;2023-02-28T04:01:30;17.27;;;8.15;;
74541;SDS011;63015;45.378;20.360;2023-02-28T04:03:36;19.73;;;9.65;;
74541;SDS011;63015;45.378;20.360;2023-02-28T04:05:54;11.18;;;4.90;;
74541;SDS011;63015;45.378;20.360;2023-02-28T04:08:05;16.23;;;7.78;;
74541;SDS011;63015;45.378;20.360;2023-02-28T04:10:07;7.47;;;3.58;;
74541;SDS011;63015;45.378;20.360;2023-02-28T04:12:09;19.23;;;9.35;;
74541;SDS011;63015;45.378;20.360;2023-02-28T04:14:10;18.60;;;8.25;;
74541;SDS011;63015;45.378;20.360;2023-02-28T04:16:11;18.98;;;9.63;;
74541;SDS011;63015;45.378;20.360;2023-02-28T04:18:12;14.48;;;7.63;;
74541;SDS011;63015;45.378;20.360;2023-02-28T04:20:12;19.27;;;8.95;;
74541;SDS011;63015;45.378;20.360;2023-02-28T04:22:13;17.40;;;8.38;;
74541;SDS011;63015;45.378;20.360;2023-02-28T04:24:31;14.63;;;6.50;;
74541;SDS011;63015;45.378;20.360;2023-02-28T04:26:36;12.55;;;6.15;;
74541;SDS011;63015;45.378;20.360;2023-02-28T04:28:37;21.58;;;9.75;;
74541;SDS011;63015;45.378;20.360;2023-02-28T04:30:38;19.10;;;9.05;;
74541;SDS011;63015;45.378;20.360;2023-02-28T04:32:39;18.52;;;8.23;;
74541;SDS011;63015;45.378;20.360;2023-02-28T04:34:39;14.20;;;6.25;;
74541;SDS011;63015;45.378;20.360;2023-02-28T04:36:40;18.50;;;8.05;;
74541;SDS011;63015;45.378;20.360;2023-02-28T04:38:40;20.00;;;9.23;;
74541;SDS011;63015;45.378;20.360;2023-02-28T04:40:41;18.98;;;9.93;;
74541;SDS011;63015;45.378;20.360;2023-02-28T04:42:41;19.35;;;9.00;;
74541;SDS011;63015;45.378;20.360;2023-02-28T04:44:42;21.40;;;9.80;;
74541;SDS011;63015;45.378;20.360;2023-02-28T04:46:43;18.65;;;7.95;;
74541;SDS011;63015;45.378;20.360;2023-02-28T04:48:44;20.50;;;8.77;;
74541;SDS011;63015;45.378;20.360;2023-02-28T04:50:44;20.20;;;8.68;;
74541;SDS011;63015;45.378;20.360;2023-02-28T04:52:45;11.02;;;5.40;;
74541;SDS011;63015;45.378;20.360;2023-02-28T04:54:45;19.75;;;9.00;;
74541;SDS011;63015;45.378;20.360;2023-02-28T04:56:46;18.08;;;8.63;;
74541;SDS011;63015;45.378;20.360;2023-02-28T04:58:48;16.15;;;7.68;;
74541;SDS011;63015;45.378;20.360;2023-02-28T05:00:52;16.25;;;7.25;;
74541;SDS011;63015;45.378;20.360;2023-02-28T05:02:53;13.15;;;6.63;;
74541;SDS011;63015;45.378;20.360;2023-02-28T05:04:53;18.02;;;8.25;;
74541;SDS011;63015;45.378;20.360;2023-02-28T05:06:54;16.27;;;8.38;;
74541;SDS011;63015;45.378;20.360;2023-02-28T05:08:55;10.95;;;5.45;;
74541;SDS011;63015;45.378;20.360;2023-02-28T05:10:56;10.32;;;5.30;;
74541;SDS011;63015;45.378;20.360;2023-02-28T05:12:57;18.27;;;7.35;;
74541;SDS011;63015;45.378;20.360;2023-02-28T05:14:57;17.42;;;8.18;;
74541;SDS011;63015;45.378;20.360;2023-02-28T05:16:58;19.10;;;8.43;;
74541;SDS011;63015;45.378;20.360;2023-02-28T05:18:58;7.60;;;3.45;;
74541;SDS011;63015;45.378;20.360;2023-02-28T05:20:59;18.17;;;8.65;;
74541;SDS011;63015;45.378;20.360;2023-02-28T05:23:02;17.35;;;7.63;;
74541;SDS011;63015;45.378;20.360;2023-02-28T05:25:03;18.17;;;7.32;;
74541;SDS011;63015;45.378;20.360;2023-02-28T05:27:05;15.65;;;8.38;;
74541;SDS011;63015;45.378;20.360;2023-02-28T05:29:05;14.02;;;5.95;;
74541;SDS011;63015;45.378;20.360;2023-02-28T05:31:07;10.73;;;4.88;;
74541;SDS011;63015;45.378;20.360;2023-02-28T05:33:11;16.65;;;7.97;;
74541;SDS011;63015;45.378;20.360;2023-02-28T05:35:12;17.05;;;8.07;;
74541;SDS011;63015;45.378;20.360;2023-02-28T05:37:13;15.68;;;7.03;;
74541;SDS011;63015;45.378;20.360;2023-02-28T05:39:15;16.77;;;7.22;;
74541;SDS011;63015;45.378;20.360;2023-02-28T05:41:16;15.70;;;7.68;;
74541;SDS011;63015;45.378;20.360;2023-02-28T05:43:19;15.57;;;7.05;;
74541;SDS011;63015;45.378;20.360;2023-02-28T05:45:19;18.05;;;8.38;;
74541;SDS011;63015;45.378;20.360;2023-02-28T05:47:20;17.17;;;7.72;;
74541;SDS011;63015;45.378;20.360;2023-02-28T05:49:20;17.67;;;7.72;;
74541;SDS011;63015;45.378;20.360;2023-02-28T05:51:21;15.00;;;7.03;;
74541;SDS011;63015;45.378;20.360;2023-02-28T05:53:21;15.45;;;7.55;;
74541;SDS011;63015;45.378;20.360;2023-02-28T05:55:22;17.48;;;8.18;;
74541;SDS011;63015;45.378;20.360;2023-02-28T05:57:22;18.20;;;7.82;;
74541;SDS011;63015;45.378;20.360;2023-02-28T05:59:23;16.98;;;7.70;;
74541;SDS011;63015;45.378;20.360;2023-02-28T06:01:26;16.02;;;7.20;;
74541;SDS011;63015;45.378;20.360;2023-02-28T06:03:30;14.23;;;6.78;;
74541;SDS011;63015;45.378;20.360;2023-02-28T06:05:31;8.90;;;3.58;;
74541;SDS011;63015;45.378;20.360;2023-02-28T06:07:32;13.98;;;6.30;;
74541;SDS011;63015;45.378;20.360;2023-02-28T06:09:32;15.27;;;7.75;;
74541;SDS011;63015;45.378;20.360;2023-02-28T06:11:33;6.43;;;3.38;;
74541;SDS011;63015;45.378;20.360;2023-02-28T06:13:34;10.43;;;5.07;;
74541;SDS011;63015;45.378;20.360;2023-02-28T06:15:34;12.30;;;4.97;;
74541;SDS011;63015;45.378;20.360;2023-02-28T06:17:35;16.45;;;7.40;;
74541;SDS011;63015;45.378;20.360;2023-02-28T06:19:37;15.13;;;7.60;;
74541;SDS011;63015;45.378;20.360;2023-02-28T06:21:38;19.60;;;8.07;;
74541;SDS011;63015;45.378;20.360;2023-02-28T06:23:39;14.38;;;5.78;;
74541;SDS011;63015;45.378;20.360;2023-02-28T06:25:39;9.35;;;4.65;;
74541;SDS011;63015;45.378;20.360;2023-02-28T06:27:44;19.58;;;8.70;;
74541;SDS011;63015;45.378;20.360;2023-02-28T06:29:44;16.83;;;8.13;;
74541;SDS011;63015;45.378;20.360;2023-02-28T06:31:45;13.60;;;6.63;;
74541;SDS011;63015;45.378;20.360;2023-02-28T06:33:46;9.88;;;4.47;;
74541;SDS011;63015;45.378;20.360;2023-02-28T06:35:50;8.60;;;4.25;;
74541;SDS011;63015;45.378;20.360;2023-02-28T06:37:51;6.45;;;3.60;;
74541;SDS011;63015;45.378;20.360;2023-02-28T06:39:52;12.70;;;5.90;;
74541;SDS011;63015;45.378;20.360;2023-02-28T06:41:53;18.15;;;7.22;;
74541;SDS011;63015;45.378;20.360;2023-02-28T06:43:54;14.18;;;5.55;;
74541;SDS011;63015;45.378;20.360;2023-02-28T06:45:55;16.25;;;7.20;;
74541;SDS011;63015;45.378;20.360;2023-02-28T06:47:58;18.98;;;8.95;;
74541;SDS011;63015;45.378;20.360;2023-02-28T06:50:00;17.50;;;8.25;;
74541;SDS011;63015;45.378;20.360;2023-02-28T06:52:01;18.73;;;8.73;;
74541;SDS011;63015;45.378;20.360;2023-02-28T06:54:02;13.77;;;6.57;;
74541;SDS011;63015;45.378;20.360;2023-02-28T06:56:04;17.83;;;7.90;;
74541;SDS011;63015;45.378;20.360;2023-02-28T06:58:08;18.48;;;8.23;;
74541;SDS011;63015;45.378;20.360;2023-02-28T07:00:18;19.98;;;8.98;;
74541;SDS011;63015;45.378;20.360;2023-02-28T07:02:19;6.15;;;3.25;;
74541;SDS011;63015;45.378;20.360;2023-02-28T07:04:19;7.47;;;3.72;;
74541;SDS011;63015;45.378;20.360;2023-02-28T07:06:20;17.90;;;8.20;;
74541;SDS011;63015;45.378;20.360;2023-02-28T07:08:25;10.73;;;5.25;;
74541;SDS011;63015;45.378;20.360;2023-02-28T07:10:26;15.80;;;7.40;;
74541;SDS011;63015;45.378;20.360;2023-02-28T07:12:27;19.92;;;9.32;;
74541;SDS011;63015;45.378;20.360;2023-02-28T07:14:27;6.25;;;2.58;;
74541;SDS011;63015;45.378;20.360;2023-02-28T07:16:28;18.33;;;8.45;;
74541;SDS011;63015;45.378;20.360;2023-02-28T07:18:28;17.13;;;8.50;;
74541;SDS011;63015;45.378;20.360;2023-02-28T07:20:29;15.23;;;7.57;;
74541;SDS011;63015;45.378;20.360;2023-02-28T07:22:30;21.67;;;8.98;;
74541;SDS011;63015;45.378;20.360;2023-02-28T07:24:31;20.10;;;8.82;;
74541;SDS011;63015;45.378;20.360;2023-02-28T07:26:31;14.75;;;7.10;;
74541;SDS011;63015;45.378;20.360;2023-02-28T07:28:34;15.82;;;6.75;;
74541;SDS011;63015;45.378;20.360;2023-02-28T07:30:34;21.08;;;9.45;;
74541;SDS011;63015;45.378;20.360;2023-02-28T07:32:35;9.55;;;3.90;;
74541;SDS011;63015;45.378;20.360;2023-02-28T07:34:37;19.98;;;9.60;;
74541;SDS011;63015;45.378;20.360;2023-02-28T07:36:38;11.48;;;5.45;;
74541;SDS011;63015;45.378;20.360;2023-02-28T07:38:38;12.20;;;5.95;;
74541;SDS011;63015;45.378;20.360;2023-02-28T07:40:39;17.13;;;8.50;;
74541;SDS011;63015;45.378;20.360;2023-02-28T07:42:40;15.23;;;7.20;;
74541;SDS011;63015;45.378;20.360;2023-02-28T07:44:42;22.73;;;10.98;;
74541;SDS011;63015;45.378;20.360;2023-02-28T07:46:43;19.63;;;7.72;;
74541;SDS011;63015;45.378;20.360;2023-02-28T07:48:43;21.50;;;9.75;;
74541;SDS011;63015;45.378;20.360;2023-02-28T07:50:45;20.13;;;10.10;;
74541;SDS011;63015;45.378;20.360;2023-02-28T07:52:55;15.50;;;7.22;;
74541;SDS011;63015;45.378;20.360;2023-02-28T07:54:55;15.80;;;7.50;;
74541;SDS011;63015;45.378;20.360;2023-02-28T07:56:56;21.45;;;10.88;;
74541;SDS011;63015;45.378;20.360;2023-02-28T07:58:57;17.75;;;8.35;;
74541;SDS011;63015;45.378;20.360;2023-02-28T08:01:02;16.23;;;7.95;;
74541;SDS011;63015;45.378;20.360;2023-02-28T08:03:05;18.45;;;8.77;;
74541;SDS011;63015;45.378;20.360;2023-02-28T08:05:06;18.05;;;8.43;;
74541;SDS011;63015;45.378;20.360;2023-02-28T08:07:07;22.10;;;9.50;;
74541;SDS011;63015;45.378;20.360;2023-02-28T08:09:08;21.85;;;10.05;;
74541;SDS011;63015;45.378;20.360;2023-02-28T08:11:08;16.80;;;8.70;;
74541;SDS011;63015;45.378;20.360;2023-02-28T08:13:09;14.98;;;7.88;;
74541;SDS011;63015;45.378;20.360;2023-02-28T08:15:09;22.15;;;10.40;;
74541;SDS011;63015;45.378;20.360;2023-02-28T08:17:10;20.75;;;10.88;;
74541;SDS011;63015;45.378;20.360;2023-02-28T08:19:11;18.00;;;8.13;;
74541;SDS011;63015;45.378;20.360;2023-02-28T08:21:11;20.25;;;9.52;;
74541;SDS011;63015;45.378;20.360;2023-02-28T08:23:12;13.25;;;4.68;;
74541;SDS011;63015;45.378;20.360;2023-02-28T08:25:13;15.55;;;7.43;;
74541;SDS011;63015;45.378;20.360;2023-02-28T08:27:13;11.30;;;5.22;;
74541;SDS011;63015;45.378;20.360;2023-02-28T08:29:14;21.40;;;9.25;;
74541;SDS011;63015;45.378;20.360;2023-02-28T08:31:17;22.13;;;10.50;;
74541;SDS011;63015;45.378;20.360;2023-02-28T08:33:18;23.42;;;10.63;;
74541;SDS011;63015;45.378;20.360;2023-02-28T08:35:19;20.23;;;8.98;;
74541;SDS011;63015;45.378;20.360;2023-02-28T08:37:19;18.65;;;8.82;;
74541;SDS011;63015;45.378;20.360;2023-02-28T08:39:20;18.92;;;9.02;;
74541;SDS011;63015;45.378;20.360;2023-02-28T08:41:21;19.95;;;9.20;;
74541;SDS011;63015;45.378;20.360;2023-02-28T08:43:21;22.15;;;10.82;;
74541;SDS011;63015;45.378;20.360;2023-02-28T08:45:22;18.42;;;9.18;;
74541;SDS011;63015;45.378;20.360;2023-02-28T08:47:22;19.77;;;9.07;;
74541;SDS011;63015;45.378;20.360;2023-02-28T08:49:23;19.63;;;9.32;;
74541;SDS011;63015;45.378;20.360;2023-02-28T08:51:23;20.90;;;9.57;;
74541;SDS011;63015;45.378;20.360;2023-02-28T08:53:27;17.90;;;9.20;;
74541;SDS011;63015;45.378;20.360;2023-02-28T08:55:27;17.13;;;8.10;;
74541;SDS011;63015;45.378;20.360;2023-02-28T08:57:28;15.80;;;7.75;;
74541;SDS011;63015;45.378;20.360;2023-02-28T08:59:28;19.38;;;8.63;;
74541;SDS011;63015;45.378;20.360;2023-02-28T09:01:29;18.58;;;8.25;;
74541;SDS011;63015;45.378;20.360;2023-02-28T09:03:31;19.45;;;10.02;;
74541;SDS011;63015;45.378;20.360;2023-02-28T09:05:32;19.38;;;9.13;;
74541;SDS011;63015;45.378;20.360;2023-02-28T09:07:33;23.65;;;10.65;;
74541;SDS011;63015;45.378;20.360;2023-02-28T09:09:33;20.17;;;8.30;;
74541;SDS011;63015;45.378;20.360;2023-02-28T09:11:34;19.20;;;9.02;;
74541;SDS011;63015;45.378;20.360;2023-02-28T09:13:35;17.77;;;8.45;;
74541;SDS011;63015;45.378;20.360;2023-02-28T09:15:39;21.85;;;9.52;;
74541;SDS011;63015;45.378;20.360;2023-02-28T09:19:40;24.10;;;10.95;;
74541;SDS011;63015;45.378;20.360;2023-02-28T09:21:41;23.63;;;10.63;;
74541;SDS011;63015;45.378;20.360;2023-02-28T09:23:45;21.75;;;9.85;;
74541;SDS011;63015;45.378;20.360;2023-02-28T09:25:48;9.07;;;4.13;;
74541;SDS011;63015;45.378;20.360;2023-02-28T09:27:51;23.48;;;11.15;;
74541;SDS011;63015;45.378;20.360;2023-02-28T09:29:51;17.67;;;8.00;;
74541;SDS011;63015;45.378;20.360;2023-02-28T09:31:52;18.38;;;8.10;;
74541;SDS011;63015;45.378;20.360;2023-02-28T09:33:53;20.60;;;10.00;;
74541;SDS011;63015;45.378;20.360;2023-02-28T09:35:59;20.48;;;9.85;;
74541;SDS011;63015;45.378;20.360;2023-02-28T09:38:01;28.25;;;12.43;;
74541;SDS011;63015;45.378;20.360;2023-02-28T09:40:02;9.55;;;4.70;;
74541;SDS011;63015;45.378;20.360;2023-02-28T09:42:03;24.00;;;10.48;;
74541;SDS011;63015;45.378;20.360;2023-02-28T09:44:04;23.55;;;11.90;;
74541;SDS011;63015;45.378;20.360;2023-02-28T09:46:14;22.88;;;9.75;;
74541;SDS011;63015;45.378;20.360;2023-02-28T09:48:35;20.85;;;8.43;;
74541;SDS011;63015;45.378;20.360;2023-02-28T09:50:40;29.27;;;13.15;;
74541;SDS011;63015;45.378;20.360;2023-02-28T09:52:46;27.08;;;12.43;;
74541;SDS011;63015;45.378;20.360;2023-02-28T09:56:51;25.35;;;10.23;;
74541;SDS011;63015;45.378;20.360;2023-02-28T09:58:58;19.52;;;9.57;;
74541;SDS011;63015;45.378;20.360;2023-02-28T10:03:39;26.83;;;13.23;;
74541;SDS011;63015;45.378;20.360;2023-02-28T10:08:18;25.88;;;12.65;;
74541;SDS011;63015;45.378;20.360;2023-02-28T10:12:25;30.63;;;13.38;;
74541;SDS011;63015;45.378;20.360;2023-02-28T10:14:30;27.83;;;12.45;;
74541;SDS011;63015;45.378;20.360;2023-02-28T10:18:49;32.10;;;14.45;;
74541;SDS011;63015;45.378;20.360;2023-02-28T10:20:54;30.98;;;14.32;;
74541;SDS011;63015;45.378;20.360;2023-02-28T10:23:00;33.97;;;15.15;;
74541;SDS011;63015;45.378;20.360;2023-02-28T10:25:21;33.78;;;13.48;;
74541;SDS011;63015;45.378;20.360;2023-02-28T10:27:25;27.52;;;12.90;;
74541;SDS011;63015;45.378;20.360;2023-02-28T10:29:29;30.45;;;14.50;;
74541;SDS011;63015;45.378;20.360;2023-02-28T10:31:32;30.85;;;14.00;;
74541;SDS011;63015;45.378;20.360;2023-02-28T10:33:34;32.00;;;15.35;;
74541;SDS011;63015;45.378;20.360;2023-02-28T10:35:35;31.13;;;14.63;;
74541;SDS011;63015;45.378;20.360;2023-02-28T10:37:39;32.92;;;15.23;;
74541;SDS011;63015;45.378;20.360;2023-02-28T10:39:42;35.53;;;14.35;;
74541;SDS011;63015;45.378;20.360;2023-02-28T10:41:46;30.20;;;13.82;;
74541;SDS011;63015;45.378;20.360;2023-02-28T10:43:47;25.95;;;12.60;;
74541;SDS011;63015;45.378;20.360;2023-02-28T10:46:02;30.80;;;14.23;;
74541;SDS011;63015;45.378;20.360;2023-02-28T10:52:54;28.45;;;13.38;;
74541;SDS011;63015;45.378;20.360;2023-02-28T10:54:58;33.22;;;14.07;;
74541;SDS011;63015;45.378;20.360;2023-02-28T11:03:31;34.58;;;14.95;;
74541;SDS011;63015;45.378;20.360;2023-02-28T11:07:35;32.95;;;15.70;;
74541;SDS011;63015;45.378;20.360;2023-02-28T11:09:39;33.83;;;15.35;;
74541;SDS011;63015;45.378;20.360;2023-02-28T11:11:41;29.33;;;14.02;;
74541;SDS011;63015;45.378;20.360;2023-02-28T11:13:45;30.17;;;14.55;;
74541;SDS011;63015;45.378;20.360;2023-02-28T11:15:52;28.25;;;13.98;;
74541;SDS011;63015;45.378;20.360;2023-02-28T11:17:55;26.38;;;13.38;;
74541;SDS011;63015;45.378;20.360;2023-02-28T11:19:59;24.85;;;11.95;;
74541;SDS011;63015;45.378;20.360;2023-02-28T11:22:03;27.42;;;13.38;;
74541;SDS011;63015;45.378;20.360;2023-02-28T11:24:12;26.17;;;12.93;;
74541;SDS011;63015;45.378;20.360;2023-02-28T11:26:42;25.63;;;12.63;;
74541;SDS011;63015;45.378;20.360;2023-02-28T11:28:45;27.25;;;13.30;;
74541;SDS011;63015;45.378;20.360;2023-02-28T11:30:46;25.63;;;12.50;;
74541;SDS011;63015;45.378;20.360;2023-02-28T11:32:59;25.77;;;12.25;;
74541;SDS011;63015;45.378;20.360;2023-02-28T11:37:05;25.20;;;12.07;;
74541;SDS011;63015;45.378;20.360;2023-02-28T11:39:12;25.33;;;12.15;;
74541;SDS011;63015;45.378;20.360;2023-02-28T11:41:17;27.60;;;12.95;;
74541;SDS011;63015;45.378;20.360;2023-02-28T11:51:03;27.65;;;14.02;;
74541;SDS011;63015;45.378;20.360;2023-02-28T11:53:22;28.27;;;13.85;;
74541;SDS011;63015;45.378;20.360;2023-02-28T11:55:54;24.42;;;12.68;;
74541;SDS011;63015;45.378;20.360;2023-02-28T11:58:12;27.90;;;13.52;;
74541;SDS011;63015;45.378;20.360;2023-02-28T12:08:49;27.48;;;13.23;;
74541;SDS011;63015;45.378;20.360;2023-02-28T12:11:24;29.17;;;13.48;;
74541;SDS011;63015;45.378;20.360;2023-02-28T12:20:46;27.38;;;13.38;;
74541;SDS011;63015;45.378;20.360;2023-02-28T12:22:55;29.17;;;13.40;;
74541;SDS011;63015;45.378;20.360;2023-02-28T12:25:02;25.38;;;12.23;;
74541;SDS011;63015;45.378;20.360;2023-02-28T12:27:22;28.38;;;13.32;;
74541;SDS011;63015;45.378;20.360;2023-02-28T12:29:28;14.75;;;7.60;;
74541;SDS011;63015;45.378;20.360;2023-02-28T12:31:33;24.27;;;12.23;;
74541;SDS011;63015;45.378;20.360;2023-02-28T12:33:38;24.90;;;10.85;;
74541;SDS011;63015;45.378;20.360;2023-02-28T12:35:52;26.73;;;12.05;;
74541;SDS011;63015;45.378;20.360;2023-02-28T12:37:57;22.95;;;10.65;;
74541;SDS011;63015;45.378;20.360;2023-02-28T12:40:05;30.20;;;13.60;;
74541;SDS011;63015;45.378;20.360;2023-02-28T12:42:32;30.08;;;13.85;;
74541;SDS011;63015;45.378;20.360;2023-02-28T12:44:42;32.28;;;14.48;;
74541;SDS011;63015;45.378;20.360;2023-02-28T12:46:51;26.40;;;12.45;;
74541;SDS011;63015;45.378;20.360;2023-02-28T12:48:56;24.70;;;10.40;;
74541;SDS011;63015;45.378;20.360;2023-02-28T12:50:58;25.67;;;11.48;;
74541;SDS011;63015;45.378;20.360;2023-02-28T12:55:17;29.65;;;13.15;;
74541;SDS011;63015;45.378;20.360;2023-02-28T12:59:45;23.98;;;11.93;;
74541;SDS011;63015;45.378;20.360;2023-02-28T13:09:18;28.55;;;12.65;;
74541;SDS011;63015;45.378;20.360;2023-02-28T13:11:23;28.10;;;12.50;;
74541;SDS011;63015;45.378;20.360;2023-02-28T13:13:26;26.63;;;12.38;;
74541;SDS011;63015;45.378;20.360;2023-02-28T13:15:29;18.52;;;8.38;;
74541;SDS011;63015;45.378;20.360;2023-02-28T13:17:30;24.48;;;9.90;;
74541;SDS011;63015;45.378;20.360;2023-02-28T13:19:32;23.23;;;10.18;;
74541;SDS011;63015;45.378;20.360;2023-02-28T13:21:41;23.05;;;10.50;;
74541;SDS011;63015;45.378;20.360;2023-02-28T13:25:55;24.42;;;11.13;;
74541;SDS011;63015;45.378;20.360;2023-02-28T13:27:57;23.45;;;10.63;;
74541;SDS011;63015;45.378;20.360;2023-02-28T13:30:01;25.73;;;11.90;;
74541;SDS011;63015;45.378;20.360;2023-02-28T13:34:25;24.10;;;11.02;;
74541;SDS011;63015;45.378;20.360;2023-02-28T13:38:34;24.92;;;11.77;;
74541;SDS011;63015;45.378;20.360;2023-02-28T13:40:42;17.02;;;8.32;;
74541;SDS011;63015;45.378;20.360;2023-02-28T13:53:59;26.80;;;12.68;;
74541;SDS011;63015;45.378;20.360;2023-02-28T13:56:31;26.90;;;12.35;;
74541;SDS011;63015;45.378;20.360;2023-02-28T13:58:51;27.10;;;12.02;;